Time;durP1;ratioP1;P1;durP2;ratioP2;P2;SDS_P1;SDS_P2;PMS_P1;PMS_P2;Temp;Humidity;BMP_temperature;BMP_pressure;BME280_temperature;BME280_humidity;BME280_pressure;Samples;Min_cycle;Max_cycle;Signal;HPM_P1;HPM_P2
2020/12/19 00:00:46;;;;;;;17.10;10.95;;;4.00;82.70;;;;;;5022071;28;20031;-90
2020/12/19 00:03:11;;;;;;;16.23;10.27;;;4.00;82.90;;;;;;5044334;28;20018;-90
2020/12/19 00:05:37;;;;;;;18.20;10.73;;;4.00;82.90;;;;;;5023326;28;20036;-90
2020/12/19 00:08:04;;;;;;;18.58;10.30;;;4.00;83.00;;;;;;5037351;28;20044;-90
2020/12/19 00:10:30;;;;;;;16.80;10.43;;;4.00;83.10;;;;;;5029128;28;20034;-91
2020/12/19 00:12:59;;;;;;;17.17;10.38;;;4.10;83.20;;;;;;5032125;28;20055;-90
2020/12/19 00:15:26;;;;;;;17.02;10.30;;;4.10;83.10;;;;;;5033006;28;20060;-89
2020/12/19 00:17:51;;;;;;;19.58;10.68;;;4.10;83.00;;;;;;5024967;28;20371;-90
2020/12/19 00:20:17;;;;;;;16.00;10.40;;;4.10;83.00;;;;;;5027799;28;20055;-90
2020/12/19 00:22:46;;;;;;;17.20;10.80;;;4.00;83.00;;;;;;5033108;28;20055;-90
2020/12/19 00:25:12;;;;;;;18.88;10.82;;;4.00;83.10;;;;;;5029169;28;20072;-90
2020/12/19 00:27:38;;;;;;;16.55;10.10;;;4.00;83.10;;;;;;5018660;28;20029;-88
2020/12/19 00:30:05;;;;;;;17.83;10.32;;;4.00;83.30;;;;;;5026284;28;20124;-89
2020/12/19 00:32:31;;;;;;;16.05;10.13;;;4.00;83.30;;;;;;5031938;28;20051;-89
2020/12/19 00:34:57;;;;;;;17.13;10.70;;;4.00;83.20;;;;;;5018787;28;20037;-90
2020/12/19 00:37:24;;;;;;;31.73;15.00;;;4.00;83.20;;;;;;5037442;28;20067;-90
2020/12/19 00:39:53;;;;;;;21.30;11.60;;;4.10;83.40;;;;;;5029472;28;20033;-90
2020/12/19 00:42:18;;;;;;;17.20;11.02;;;4.10;83.40;;;;;;5021686;28;20502;-90
2020/12/19 00:44:44;;;;;;;15.43;10.57;;;4.10;83.10;;;;;;5016912;28;20083;-90
2020/12/19 00:47:10;;;;;;;14.25;9.65;;;4.10;83.00;;;;;;5020353;28;20035;-89
2020/12/19 00:49:35;;;;;;;14.55;9.60;;;4.10;83.60;;;;;;5013629;28;20048;-90
2020/12/19 00:52:02;;;;;;;14.70;9.55;;;4.00;83.00;;;;;;5038591;28;20035;-90
2020/12/19 00:54:27;;;;;;;15.10;9.00;;;4.00;83.20;;;;;;5016771;28;20036;-90
2020/12/19 00:56:53;;;;;;;16.08;9.48;;;4.00;83.30;;;;;;5017885;28;20026;-90
2020/12/19 00:59:18;;;;;;;15.93;9.20;;;3.90;83.30;;;;;;5024002;28;20330;-90
2020/12/19 01:01:44;;;;;;;15.90;9.75;;;3.90;83.40;;;;;;5021153;28;20500;-90
2020/12/19 01:04:10;;;;;;;14.20;9.52;;;3.90;83.50;;;;;;5032044;28;20048;-91
2020/12/19 01:06:35;;;;;;;16.33;9.18;;;3.90;83.60;;;;;;5025061;28;20091;-90
2020/12/19 01:09:03;;;;;;;14.60;8.77;;;3.90;83.50;;;;;;5020588;28;20067;-90
2020/12/19 01:11:29;;;;;;;18.65;9.50;;;3.90;83.40;;;;;;5023144;28;20485;-89
2020/12/19 01:13:56;;;;;;;13.77;8.82;;;3.90;83.40;;;;;;5029002;28;20097;-90
2020/12/19 01:16:25;;;;;;;15.13;8.90;;;3.90;83.30;;;;;;5023942;28;20118;-89
2020/12/19 01:18:52;;;;;;;12.55;8.45;;;3.90;83.40;;;;;;5023484;28;20018;-90
2020/12/19 01:21:21;;;;;;;13.35;8.32;;;3.90;83.40;;;;;;5020851;28;20013;-90
2020/12/19 01:23:50;;;;;;;15.50;8.98;;;3.90;83.50;;;;;;5026809;28;20033;-90
2020/12/19 01:26:17;;;;;;;18.30;8.68;;;3.80;83.50;;;;;;5018077;28;20100;-90
2020/12/19 01:28:43;;;;;;;13.50;8.48;;;3.80;83.50;;;;;;5017869;28;20051;-90
2020/12/19 01:31:12;;;;;;;12.77;8.32;;;3.80;83.60;;;;;;5018783;28;20489;-90
2020/12/19 01:33:38;;;;;;;14.25;8.80;;;3.80;83.60;;;;;;5015819;28;20032;-90
2020/12/19 01:36:07;;;;;;;14.13;9.18;;;3.80;83.70;;;;;;5022103;28;20017;-90
2020/12/19 01:38:33;;;;;;;16.45;9.98;;;3.80;83.90;;;;;;5031372;28;20152;-90
2020/12/19 01:40:58;;;;;;;16.55;9.00;;;3.80;84.00;;;;;;5021404;28;20112;-90
2020/12/19 01:43:24;;;;;;;15.27;9.15;;;3.90;83.90;;;;;;5015645;28;20020;-90
2020/12/19 01:45:50;;;;;;;13.52;9.00;;;4.00;83.80;;;;;;5032782;28;20057;-89
2020/12/19 01:48:21;;;;;;;15.82;9.27;;;4.10;83.80;;;;;;5034570;28;20025;-88
2020/12/19 01:50:48;;;;;;;12.93;8.85;;;4.10;83.60;;;;;;5033165;28;20041;-89
2020/12/19 01:53:19;;;;;;;13.32;8.63;;;4.10;83.40;;;;;;5032013;28;20037;-90
2020/12/19 01:55:45;;;;;;;11.23;8.43;;;4.20;83.50;;;;;;5016430;28;20473;-90
2020/12/19 01:58:11;;;;;;;14.98;8.73;;;4.20;83.50;;;;;;5021060;28;20033;-90
2020/12/19 02:00:38;;;;;;;13.30;8.40;;;4.30;83.60;;;;;;5019583;28;20079;-90
2020/12/19 02:03:04;;;;;;;16.02;8.55;;;4.30;83.50;;;;;;5038967;28;20068;-89
2020/12/19 02:05:33;;;;;;;12.93;8.13;;;4.30;83.20;;;;;;5015223;28;20060;-89
2020/12/19 02:08:00;;;;;;;13.32;7.50;;;4.30;83.10;;;;;;5015167;28;20083;-90
2020/12/19 02:10:26;;;;;;;13.13;8.10;;;4.20;83.10;;;;;;5020675;28;20099;-90
2020/12/19 02:12:51;;;;;;;9.63;7.07;;;4.20;83.20;;;;;;5029276;28;20123;-91
2020/12/19 02:15:17;;;;;;;11.00;7.22;;;4.10;83.20;;;;;;5028524;28;20526;-90
2020/12/19 02:17:43;;;;;;;9.57;6.45;;;4.00;83.40;;;;;;5020138;28;20369;-91
2020/12/19 02:20:08;;;;;;;11.50;7.35;;;3.90;83.50;;;;;;5029371;28;20041;-90
2020/12/19 02:22:35;;;;;;;9.93;7.60;;;3.90;83.70;;;;;;5043332;28;20060;-90
2020/12/19 02:25:00;;;;;;;9.75;7.03;;;3.90;83.80;;;;;;5022373;28;20052;-90
2020/12/19 02:27:26;;;;;;;10.52;7.70;;;3.90;83.70;;;;;;5036288;28;20794;-89
2020/12/19 02:29:51;;;;;;;15.25;7.82;;;3.90;83.70;;;;;;5019025;28;20052;-90
2020/12/19 02:32:17;;;;;;;11.20;8.07;;;3.90;83.90;;;;;;5015295;28;20393;-89
2020/12/19 02:34:42;;;;;;;10.95;7.63;;;3.90;83.90;;;;;;5013789;28;20060;-90
2020/12/19 02:37:08;;;;;;;10.88;7.63;;;3.90;83.80;;;;;;5014005;28;20038;-88
2020/12/19 02:39:33;;;;;;;13.57;7.22;;;3.90;83.80;;;;;;5018666;28;20116;-89
2020/12/19 02:41:59;;;;;;;11.18;7.75;;;3.90;83.80;;;;;;5023819;28;20512;-89
2020/12/19 02:44:24;;;;;;;9.90;6.75;;;3.90;83.80;;;;;;5038281;28;20104;-89
2020/12/19 02:46:50;;;;;;;11.73;7.82;;;3.90;83.80;;;;;;5023773;28;20040;-89
2020/12/19 02:49:16;;;;;;;11.32;8.20;;;3.90;83.60;;;;;;5022347;28;20040;-89
2020/12/19 02:51:41;;;;;;;10.57;7.22;;;3.80;83.60;;;;;;5037567;28;20077;-89
2020/12/19 02:54:07;;;;;;;9.93;7.28;;;3.80;83.70;;;;;;5025554;28;20025;-88
2020/12/19 02:56:33;;;;;;;10.23;6.80;;;3.80;83.80;;;;;;5019672;28;20033;-89
2020/12/19 02:58:58;;;;;;;8.60;6.40;;;3.70;83.90;;;;;;5020994;28;20036;-89
2020/12/19 03:01:28;;;;;;;12.10;7.53;;;3.70;83.90;;;;;;5044362;28;20037;-89
2020/12/19 03:03:53;;;;;;;10.13;6.70;;;3.70;84.00;;;;;;5025068;28;20037;-89
2020/12/19 03:06:19;;;;;;;9.25;6.78;;;3.70;84.00;;;;;;5033729;28;20025;-89
2020/12/19 03:08:45;;;;;;;10.13;6.65;;;3.60;83.90;;;;;;5014285;28;20040;-89
2020/12/19 03:11:10;;;;;;;13.77;6.90;;;3.60;83.90;;;;;;5012607;28;20026;-89
2020/12/19 03:13:36;;;;;;;9.30;6.93;;;3.60;83.90;;;;;;5020108;28;20433;-89
2020/12/19 03:16:01;;;;;;;13.40;6.50;;;3.50;84.00;;;;;;5013736;28;20052;-90
2020/12/19 03:18:27;;;;;;;10.88;6.65;;;3.50;84.20;;;;;;5022162;28;20033;-89
2020/12/19 03:20:53;;;;;;;9.60;6.75;;;3.60;84.10;;;;;;5013100;28;20021;-89
2020/12/19 03:23:18;;;;;;;9.85;6.32;;;3.60;84.10;;;;;;5023852;28;20029;-88
2020/12/19 03:25:44;;;;;;;7.97;6.22;;;3.60;84.10;;;;;;5021328;28;20022;-89
2020/12/19 03:28:09;;;;;;;9.50;5.97;;;3.60;84.00;;;;;;5026455;28;20059;-89
2020/12/19 03:30:35;;;;;;;8.57;6.07;;;3.60;83.70;;;;;;5024555;28;20485;-90
2020/12/19 03:33:01;;;;;;;8.75;6.00;;;3.60;83.70;;;;;;5026651;28;20048;-89
2020/12/19 03:35:26;;;;;;;8.45;5.95;;;3.60;83.80;;;;;;5026465;28;20146;-90
2020/12/19 03:37:52;;;;;;;8.60;5.95;;;3.50;83.80;;;;;;5027974;28;20067;-89
2020/12/19 03:40:18;;;;;;;8.35;6.10;;;3.50;83.70;;;;;;5018907;28;20037;-89
2020/12/19 03:42:44;;;;;;;8.45;6.10;;;3.50;83.60;;;;;;5035652;28;20438;-89
2020/12/19 03:45:10;;;;;;;7.75;5.88;;;3.40;83.60;;;;;;5033456;28;20174;-90
2020/12/19 03:47:36;;;;;;;11.93;5.95;;;3.40;83.70;;;;;;5037081;28;20059;-89
2020/12/19 03:50:03;;;;;;;9.02;6.05;;;3.40;83.80;;;;;;5021865;28;20037;-90
2020/12/19 03:52:29;;;;;;;7.97;6.22;;;3.30;83.70;;;;;;5039246;28;20041;-90
2020/12/19 03:54:55;;;;;;;8.40;6.07;;;3.20;83.70;;;;;;5023154;28;20026;-90
2020/12/19 03:57:20;;;;;;;8.40;6.28;;;3.20;83.80;;;;;;5021504;28;20053;-90
2020/12/19 03:59:46;;;;;;;9.90;6.18;;;3.20;84.00;;;;;;5010635;28;20056;-89
2020/12/19 04:02:11;;;;;;;9.27;5.85;;;3.20;84.00;;;;;;5021587;28;20065;-90
2020/12/19 04:04:37;;;;;;;8.93;6.15;;;3.20;84.00;;;;;;5025443;28;20427;-90
2020/12/19 04:07:03;;;;;;;10.20;6.43;;;3.20;83.90;;;;;;5022706;28;20025;-89
2020/12/19 04:09:29;;;;;;;8.20;5.88;;;3.20;84.00;;;;;;5031489;28;20059;-89
2020/12/19 04:11:54;;;;;;;7.50;6.13;;;3.20;83.80;;;;;;5024764;28;20045;-89
2020/12/19 04:14:20;;;;;;;8.57;5.53;;;3.20;83.70;;;;;;5022217;28;20025;-90
2020/12/19 04:16:47;;;;;;;8.80;5.65;;;3.10;83.70;;;;;;5025394;28;20444;-90
2020/12/19 04:19:13;;;;;;;8.73;6.03;;;3.00;83.70;;;;;;5022704;28;20091;-89
2020/12/19 04:21:38;;;;;;;8.50;5.47;;;3.00;83.90;;;;;;5024921;28;20045;-89
2020/12/19 04:24:04;;;;;;;9.65;6.30;;;3.00;83.90;;;;;;5022676;28;20040;-90
2020/12/19 04:26:29;;;;;;;8.70;6.03;;;3.00;83.90;;;;;;5029395;28;20025;-89
2020/12/19 04:28:55;;;;;;;8.15;5.72;;;2.90;84.00;;;;;;5021695;28;20550;-89
2020/12/19 04:31:20;;;;;;;7.72;5.80;;;2.90;83.90;;;;;;5020477;28;20386;-90
2020/12/19 04:33:46;;;;;;;7.85;6.00;;;2.90;83.90;;;;;;5021696;28;20163;-89
2020/12/19 04:36:12;;;;;;;9.23;5.80;;;2.90;84.00;;;;;;5017204;28;20497;-90
2020/12/19 04:38:37;;;;;;;8.48;6.00;;;2.90;83.90;;;;;;5027054;28;20033;-90
2020/12/19 04:41:03;;;;;;;6.38;5.30;;;2.90;84.00;;;;;;5027225;28;20030;-90
2020/12/19 04:43:29;;;;;;;6.82;5.40;;;2.90;83.90;;;;;;5021159;28;20071;-89
2020/12/19 04:45:55;;;;;;;8.20;6.05;;;2.90;83.90;;;;;;5021220;28;20101;-90
2020/12/19 04:48:24;;;;;;;6.45;5.18;;;2.90;83.80;;;;;;5026828;28;20334;-90
2020/12/19 04:50:50;;;;;;;7.03;5.57;;;2.90;83.90;;;;;;5014289;28;20120;-90
2020/12/19 04:53:21;;;;;;;5.78;4.82;;;2.90;84.00;;;;;;5027528;28;20029;-91
2020/12/19 04:55:48;;;;;;;7.82;5.60;;;2.90;83.90;;;;;;5017622;28;20026;-90
2020/12/19 04:58:19;;;;;;;6.88;5.25;;;2.90;83.90;;;;;;5034234;28;20059;-90
2020/12/19 05:00:46;;;;;;;8.20;5.75;;;2.90;84.20;;;;;;5019618;28;20462;-90
2020/12/19 05:03:12;;;;;;;7.50;5.65;;;2.80;83.70;;;;;;5028341;28;20041;-90
2020/12/19 05:05:41;;;;;;;7.40;5.40;;;2.80;83.80;;;;;;5019188;28;20509;-90
2020/12/19 05:08:07;;;;;;;9.18;5.50;;;2.80;83.90;;;;;;5031247;28;20059;-90
2020/12/19 05:10:33;;;;;;;7.93;5.78;;;2.80;83.90;;;;;;5032917;28;20440;-90
2020/12/19 05:12:58;;;;;;;8.90;5.57;;;2.90;83.80;;;;;;5019882;28;20036;-90
2020/12/19 05:15:24;;;;;;;6.80;5.10;;;2.90;83.70;;;;;;5020943;28;20037;-90
2020/12/19 05:17:53;;;;;;;11.52;5.65;;;2.90;83.60;;;;;;5029756;28;20026;-90
2020/12/19 05:20:20;;;;;;;7.25;5.70;;;2.90;83.70;;;;;;5026392;28;20045;-90
2020/12/19 05:22:48;;;;;;;6.70;5.05;;;2.90;83.70;;;;;;5016673;28;20025;-89
2020/12/19 05:25:16;;;;;;;6.63;5.28;;;2.90;83.70;;;;;;5022784;28;20040;-90
2020/12/19 05:27:46;;;;;;;8.93;5.68;;;2.90;83.50;;;;;;5016169;28;20066;-90
2020/12/19 05:30:13;;;;;;;8.00;5.35;;;2.90;83.50;;;;;;5028965;28;20032;-90
2020/12/19 05:32:57;;;;;;;7.05;5.18;;;2.90;83.50;;;;;;5033350;28;20032;-90
2020/12/19 05:35:23;;;;;;;7.53;5.28;;;2.90;83.50;;;;;;5016146;28;20025;-89
2020/12/19 05:38:03;;;;;;;7.47;5.32;;;2.80;83.40;;;;;;5018516;28;20024;-89
2020/12/19 05:40:30;;;;;;;7.60;5.47;;;2.80;83.40;;;;;;5023474;28;20037;-90
2020/12/19 05:42:59;;;;;;;7.35;5.10;;;2.80;83.50;;;;;;5016181;28;20123;-90
2020/12/19 05:45:28;;;;;;;8.07;5.43;;;2.80;83.40;;;;;;5018723;28;20390;-90
2020/12/19 05:47:54;;;;;;;6.13;4.75;;;2.70;83.50;;;;;;5048675;28;20510;-91
2020/12/19 05:50:21;;;;;;;7.90;5.13;;;2.70;83.30;;;;;;5029995;28;20029;-90
2020/12/19 05:52:47;;;;;;;6.72;5.03;;;2.60;83.40;;;;;;5020323;28;20021;-90
2020/12/19 05:55:17;;;;;;;7.80;5.60;;;2.60;83.50;;;;;;5045314;28;20086;-90
2020/12/19 05:57:44;;;;;;;8.27;6.38;;;2.50;83.40;;;;;;5031408;28;20048;-90
2020/12/19 06:00:15;;;;;;;6.32;5.43;;;2.40;83.40;;;;;;5034996;28;20056;-91
2020/12/19 06:02:43;;;;;;;7.15;5.65;;;2.40;83.50;;;;;;5013590;28;20120;-90
2020/12/19 06:08:32;;;;;;;7.63;5.07;;;2.30;83.90;;;;;;5024865;28;20036;-90
2020/12/19 06:10:59;;;;;;;9.57;5.30;;;2.30;83.80;;;;;;5041773;28;20053;-90
2020/12/19 06:13:26;;;;;;;6.22;5.07;;;2.40;84.00;;;;;;5024588;28;20136;-90
2020/12/19 06:16:11;;;;;;;6.88;4.93;;;2.40;84.00;;;;;;5031054;28;20034;-90
2020/12/19 06:18:52;;;;;;;5.18;4.63;;;2.50;84.00;;;;;;5032683;28;20552;-89
2020/12/19 06:21:19;;;;;;;8.68;5.10;;;2.50;83.80;;;;;;5020558;28;20057;-90
2020/12/19 06:23:44;;;;;;;7.30;5.22;;;2.50;83.70;;;;;;5024386;28;20028;-90
2020/12/19 06:26:11;;;;;;;6.60;5.13;;;2.50;83.70;;;;;;5016292;28;20034;-91
2020/12/19 06:28:40;;;;;;;9.15;5.40;;;2.50;83.70;;;;;;5020924;28;20029;-90
2020/12/19 06:31:07;;;;;;;7.00;5.57;;;2.60;83.70;;;;;;5024604;28;20018;-90
2020/12/19 06:33:34;;;;;;;9.00;5.68;;;2.60;83.60;;;;;;5051332;28;20366;-90
2020/12/19 06:36:03;;;;;;;7.13;5.30;;;2.60;83.40;;;;;;5026560;28;20059;-91
2020/12/19 06:38:52;;;;;;;7.72;5.07;;;2.50;83.50;;;;;;5030519;28;20523;-91
2020/12/19 06:41:46;;;;;;;7.07;5.28;;;2.50;83.50;;;;;;5023151;28;20022;-89
2020/12/19 06:44:31;;;;;;;7.18;5.20;;;2.60;83.50;;;;;;5029091;28;20029;-91
2020/12/19 06:46:59;;;;;;;6.50;5.20;;;2.50;83.40;;;;;;5019726;28;20043;-91
2020/12/19 06:49:34;;;;;;;7.32;5.25;;;2.50;83.40;;;;;;5018073;28;20098;-91
2020/12/19 06:52:22;;;;;;;7.93;5.53;;;2.50;83.40;;;;;;5017206;28;20029;-91
2020/12/19 06:54:48;;;;;;;7.60;5.25;;;2.50;83.50;;;;;;5014769;28;20119;-91
2020/12/19 06:57:48;;;;;;;7.03;4.97;;;2.50;83.40;;;;;;5037129;28;20037;-91
2020/12/19 07:00:22;;;;;;;8.10;5.18;;;2.50;83.40;;;;;;5026258;28;20020;-91
2020/12/19 07:02:51;;;;;;;8.90;5.07;;;2.50;83.30;;;;;;5038958;28;20036;-91
2020/12/19 07:05:25;;;;;;;6.60;5.15;;;2.40;83.30;;;;;;5025566;28;20034;-91
2020/12/19 07:07:52;;;;;;;9.00;5.00;;;2.50;83.40;;;;;;5038590;28;20147;-92
2020/12/19 07:10:35;;;;;;;6.53;5.60;;;2.50;83.40;;;;;;5040840;28;20040;-90
2020/12/19 07:13:01;;;;;;;6.13;4.97;;;2.50;83.50;;;;;;5028398;28;20053;-92
2020/12/19 07:15:47;;;;;;;6.47;5.18;;;2.50;83.40;;;;;;5050390;28;20160;-90
2020/12/19 07:18:45;;;;;;;7.97;4.90;;;2.40;83.40;;;;;;5027989;28;20052;-92
2020/12/19 07:21:11;;;;;;;13.35;5.55;;;2.50;83.40;;;;;;4998518;28;20041;-91
2020/12/19 07:23:38;;;;;;;8.70;5.70;;;2.40;83.10;;;;;;5018349;28;20029;-91
2020/12/19 07:26:04;;;;;;;6.68;5.55;;;2.40;83.10;;;;;;5033368;28;20033;-91
2020/12/19 07:28:30;;;;;;;11.73;6.40;;;2.30;83.10;;;;;;5017594;28;20063;-91
2020/12/19 07:30:56;;;;;;;7.88;5.13;;;2.30;83.30;;;;;;5016704;28;20564;-90
2020/12/19 07:33:21;;;;;;;7.40;5.38;;;2.20;83.30;;;;;;5021931;28;20130;-90
2020/12/19 07:35:47;;;;;;;7.55;5.15;;;2.10;83.40;;;;;;5037498;28;20025;-90
2020/12/19 07:38:13;;;;;;;8.15;5.43;;;2.10;83.50;;;;;;5034338;28;20377;-91
2020/12/19 07:40:39;;;;;;;6.93;5.05;;;2.10;83.60;;;;;;5025274;28;20061;-91
2020/12/19 07:43:07;;;;;;;6.90;5.40;;;2.10;83.70;;;;;;5018600;28;20037;-90
2020/12/19 07:45:34;;;;;;;6.85;5.13;;;2.10;83.90;;;;;;5019172;28;20041;-89
2020/12/19 07:48:00;;;;;;;9.25;5.30;;;2.10;83.90;;;;;;5029919;28;20040;-89
2020/12/19 07:50:31;;;;;;;5.97;4.80;;;2.20;83.90;;;;;;5046061;28;20028;-90
2020/12/19 07:53:02;;;;;;;8.10;5.35;;;2.20;83.80;;;;;;5021536;28;20066;-90
2020/12/19 07:55:29;;;;;;;6.18;4.93;;;2.20;83.80;;;;;;5034685;28;20036;-89
2020/12/19 07:57:55;;;;;;;6.00;4.63;;;2.20;83.80;;;;;;5036709;28;20461;-90
2020/12/19 08:00:24;;;;;;;7.60;5.13;;;2.30;83.80;;;;;;5028153;28;20028;-90
2020/12/19 08:02:51;;;;;;;8.40;4.70;;;2.30;83.80;;;;;;5033936;28;20036;-90
2020/12/19 08:05:17;;;;;;;7.55;5.07;;;2.30;83.80;;;;;;5036344;28;20025;-90
2020/12/19 08:07:43;;;;;;;5.13;4.40;;;2.40;83.90;;;;;;5019426;28;20045;-90
2020/12/19 08:10:12;;;;;;;7.20;5.22;;;2.40;83.70;;;;;;5031439;28;20068;-89
2020/12/19 08:12:39;;;;;;;7.68;5.20;;;2.40;83.70;;;;;;5018641;28;20033;-90
2020/12/19 08:15:12;;;;;;;5.82;4.43;;;2.50;83.70;;;;;;5032424;28;20074;-90
2020/12/19 08:17:49;;;;;;;;;;;2.50;83.60;;;;;;5025361;28;20018;-90
2020/12/19 08:20:18;;;;;;;6.72;4.85;;;2.60;83.50;;;;;;5018581;28;19909;-90
2020/12/19 08:22:45;;;;;;;6.10;4.63;;;2.70;83.50;;;;;;5053837;28;20033;-90
2020/12/19 08:25:11;;;;;;;6.03;4.82;;;2.70;83.40;;;;;;5020558;28;20025;-89
2020/12/19 08:27:39;;;;;;;5.80;4.80;;;2.80;83.50;;;;;;5020904;28;20037;-90
2020/12/19 08:30:23;;;;;;;5.57;4.47;;;2.90;83.50;;;;;;5034864;28;20033;-90
2020/12/19 08:32:59;;;;;;;7.35;4.72;;;3.00;83.40;;;;;;5026925;28;20119;-90
2020/12/19 08:35:30;;;;;;;5.63;4.82;;;3.10;83.30;;;;;;5028370;28;20370;-89
2020/12/19 08:38:08;;;;;;;5.63;4.35;;;3.10;83.70;;;;;;5023982;28;20029;-89
2020/12/19 08:40:42;;;;;;;7.03;4.72;;;3.20;83.20;;;;;;5020381;28;20071;-90
2020/12/19 08:43:09;;;;;;;5.38;4.50;;;3.20;83.10;;;;;;5032950;28;20022;-89
2020/12/19 08:45:35;;;;;;;6.32;4.70;;;3.20;83.10;;;;;;5023882;28;20056;-89
2020/12/19 08:48:09;;;;;;;8.32;4.90;;;3.20;83.10;;;;;;5042955;28;20021;-89
2020/12/19 08:50:43;;;;;;;5.32;4.60;;;3.20;83.70;;;;;;5036149;28;20044;-90
2020/12/19 08:53:22;;;;;;;6.57;4.65;;;3.30;83.40;;;;;;5037199;28;20036;-90
2020/12/19 08:55:50;;;;;;;7.50;4.80;;;3.30;83.30;;;;;;5025516;28;20067;-90
2020/12/19 08:58:25;;;;;;;6.82;4.85;;;3.40;83.20;;;;;;5016088;28;20045;-88
2020/12/19 09:00:55;;;;;;;5.80;5.00;;;3.40;83.30;;;;;;5017995;28;20065;-90
2020/12/19 09:03:32;;;;;;;6.00;4.78;;;3.50;83.20;;;;;;5045195;28;20017;-89
2020/12/19 09:06:09;;;;;;;4.97;4.40;;;3.50;83.20;;;;;;5018383;28;20107;-90
2020/12/19 09:08:39;;;;;;;7.15;4.90;;;3.50;83.20;;;;;;5014114;28;20013;-89
2020/12/19 09:11:06;;;;;;;5.65;4.00;;;3.50;83.20;;;;;;5032914;28;20041;-90
2020/12/19 09:13:32;;;;;;;5.72;4.28;;;3.60;83.20;;;;;;5017796;28;20187;-90
2020/12/19 09:16:09;;;;;;;6.50;4.30;;;3.60;83.20;;;;;;5019642;28;20032;-90
2020/12/19 09:18:39;;;;;;;4.97;4.43;;;3.70;83.30;;;;;;5027617;28;20025;-90
2020/12/19 09:21:10;;;;;;;4.90;4.40;;;3.80;83.30;;;;;;5021536;28;20044;-89
2020/12/19 09:23:36;;;;;;;5.45;4.32;;;3.80;83.20;;;;;;5035270;28;20021;-89
2020/12/19 09:26:05;;;;;;;4.80;3.97;;;4.00;83.30;;;;;;5034706;28;20086;-89
2020/12/19 09:28:31;;;;;;;6.38;4.50;;;4.00;83.20;;;;;;5032954;28;20025;-89
2020/12/19 09:30:57;;;;;;;4.80;3.72;;;4.10;83.10;;;;;;5016631;28;20355;-90
2020/12/19 09:33:23;;;;;;;5.10;4.07;;;4.20;82.90;;;;;;5018963;28;20040;-90
2020/12/19 09:35:49;;;;;;;4.18;3.78;;;4.20;82.80;;;;;;5018357;28;20113;-89
2020/12/19 09:38:15;;;;;;;4.90;3.70;;;4.30;83.00;;;;;;5016113;28;20037;-89
2020/12/19 09:40:41;;;;;;;4.93;4.07;;;4.40;82.90;;;;;;5016514;28;20057;-90
2020/12/19 09:43:07;;;;;;;6.40;4.15;;;4.50;83.30;;;;;;5020754;28;20424;-90
2020/12/19 09:45:35;;;;;;;5.38;4.13;;;4.50;82.70;;;;;;5036574;28;20105;-91
2020/12/19 09:48:00;;;;;;;6.80;4.28;;;4.60;82.70;;;;;;5033094;28;20497;-90
2020/12/19 09:50:27;;;;;;;5.07;4.50;;;4.70;82.50;;;;;;5032244;28;20151;-90
2020/12/19 09:52:53;;;;;;;6.18;4.38;;;4.80;82.50;;;;;;5033133;28;20032;-91
2020/12/19 09:55:19;;;;;;;6.10;4.60;;;4.80;82.40;;;;;;5017032;28;20033;-90
2020/12/19 09:57:45;;;;;;;4.43;3.90;;;4.90;82.40;;;;;;5024716;28;20405;-89
2020/12/19 10:00:13;;;;;;;5.85;4.30;;;4.90;82.20;;;;;;5035337;28;20025;-91
2020/12/19 10:02:40;;;;;;;6.72;4.53;;;5.00;82.30;;;;;;5016593;28;20543;-90
2020/12/19 10:05:07;;;;;;;5.82;3.70;;;5.00;82.20;;;;;;5024854;28;20033;-90
2020/12/19 10:07:33;;;;;;;4.43;3.85;;;5.10;82.30;;;;;;5042426;28;20394;-90
2020/12/19 10:09:58;;;;;;;5.50;4.40;;;5.20;82.20;;;;;;5028902;28;20041;-89
2020/12/19 10:12:24;;;;;;;8.25;4.15;;;5.20;82.10;;;;;;5033089;28;20033;-90
2020/12/19 10:14:50;;;;;;;6.20;4.00;;;5.30;82.00;;;;;;5024526;28;20104;-90
2020/12/19 10:17:16;;;;;;;4.38;3.97;;;5.40;81.90;;;;;;5031386;28;20127;-90
2020/12/19 10:19:41;;;;;;;6.93;4.35;;;5.40;81.80;;;;;;5033413;28;20025;-89
2020/12/19 10:22:25;;;;;;;6.18;3.80;;;5.50;81.80;;;;;;5018782;28;20018;-89
2020/12/19 10:24:50;;;;;;;6.65;4.68;;;5.50;81.60;;;;;;5015858;28;20025;-89
2020/12/19 10:27:17;;;;;;;5.03;4.05;;;5.60;81.60;;;;;;5029173;28;20121;-89
2020/12/19 10:29:43;;;;;;;5.32;4.38;;;5.60;81.40;;;;;;5017447;28;20029;-90
2020/12/19 10:32:09;;;;;;;6.55;4.13;;;5.70;81.40;;;;;;5028073;28;20098;-90
2020/12/19 10:34:35;;;;;;;5.13;4.40;;;5.70;81.40;;;;;;5034611;28;20452;-90
2020/12/19 10:37:01;;;;;;;5.93;4.15;;;5.80;81.30;;;;;;5039884;28;20029;-90
2020/12/19 10:39:27;;;;;;;7.10;4.40;;;5.80;81.20;;;;;;5038519;28;20036;-90
2020/12/19 10:41:52;;;;;;;6.93;4.78;;;5.90;81.30;;;;;;5034351;28;20036;-90
2020/12/19 10:44:18;;;;;;;6.78;3.72;;;6.00;81.10;;;;;;5029150;28;20024;-91
2020/12/19 10:46:44;;;;;;;4.13;3.72;;;6.10;81.00;;;;;;5032653;28;20033;-91
2020/12/19 10:49:10;;;;;;;5.68;4.50;;;6.10;80.90;;;;;;5040331;28;20382;-90
2020/12/19 10:51:38;;;;;;;5.10;3.70;;;6.20;80.80;;;;;;5039875;28;20043;-90
2020/12/19 10:54:04;;;;;;;4.78;4.20;;;6.30;80.80;;;;;;5028082;28;20029;-90
2020/12/19 10:56:29;;;;;;;5.65;4.80;;;6.30;80.70;;;;;;5032208;28;20347;-90
2020/12/19 10:58:58;;;;;;;14.88;9.45;;;6.40;80.60;;;;;;5036863;28;20036;-92
2020/12/19 11:01:24;;;;;;;8.73;4.70;;;6.40;80.50;;;;;;5044797;28;20067;-91
2020/12/19 11:03:52;;;;;;;5.90;4.50;;;6.50;80.40;;;;;;5068547;28;20036;-93
2020/12/19 11:06:19;;;;;;;6.35;5.05;;;6.60;80.20;;;;;;5069148;28;20036;-93
2020/12/19 11:08:45;;;;;;;5.25;4.65;;;6.60;79.90;;;;;;5048751;28;20495;-94
2020/12/19 11:11:11;;;;;;;6.03;4.45;;;6.70;80.00;;;;;;5049160;28;20047;-92
2020/12/19 11:13:37;;;;;;;9.07;4.70;;;6.70;79.80;;;;;;5052746;28;20086;-92
2020/12/19 11:16:02;;;;;;;8.35;4.68;;;6.80;79.80;;;;;;5073269;28;20028;-93
2020/12/19 11:18:28;;;;;;;5.72;4.63;;;6.80;79.70;;;;;;5064811;28;20440;-93
2020/12/19 11:20:54;;;;;;;5.93;4.63;;;6.80;79.60;;;;;;5054853;28;20025;-93
2020/12/19 11:23:19;;;;;;;6.00;4.78;;;6.80;79.60;;;;;;5052902;28;20033;-90
2020/12/19 11:25:45;;;;;;;10.88;4.43;;;6.90;79.60;;;;;;5027470;28;20026;-89
2020/12/19 11:28:11;;;;;;;5.45;3.85;;;6.90;79.50;;;;;;5023984;28;20029;-92
2020/12/19 11:30:36;;;;;;;6.95;4.43;;;7.00;79.30;;;;;;5027257;28;20096;-89
2020/12/19 11:33:02;;;;;;;7.22;4.47;;;7.00;79.20;;;;;;5036906;28;20140;-94
2020/12/19 11:35:28;;;;;;;5.80;4.20;;;7.00;79.30;;;;;;5049260;28;20129;-92
2020/12/19 11:37:53;;;;;;;6.05;4.20;;;7.00;79.30;;;;;;5045361;28;20013;-92
2020/12/19 11:40:19;;;;;;;6.50;4.30;;;7.10;79.40;;;;;;5047082;28;20049;-93
2020/12/19 11:42:44;;;;;;;5.03;4.20;;;7.10;79.40;;;;;;5059580;22;20072;-65
2020/12/19 11:45:10;;;;;;;5.05;3.95;;;7.20;79.40;;;;;;5077457;28;20048;-65
2020/12/19 11:47:35;;;;;;;6.70;3.55;;;7.30;79.40;;;;;;5075015;28;20025;-65
2020/12/19 11:50:03;;;;;;;5.22;3.58;;;7.40;79.30;;;;;;5072725;28;20035;-65
2020/12/19 11:52:28;;;;;;;3.95;3.25;;;7.50;79.30;;;;;;5071263;28;20523;-66
2020/12/19 11:54:54;;;;;;;4.28;3.58;;;7.60;79.20;;;;;;5069621;28;20032;-66
2020/12/19 11:57:19;;;;;;;4.10;3.20;;;7.80;79.10;;;;;;5058960;28;20109;-65
2020/12/19 11:59:45;;;;;;;4.57;3.15;;;7.90;79.00;;;;;;5072297;28;20103;-65
2020/12/19 12:02:10;;;;;;;3.75;3.25;;;8.10;78.80;;;;;;5070040;28;20123;-66
2020/12/19 12:04:36;;;;;;;4.43;3.20;;;8.20;78.60;;;;;;5069888;28;20064;-66
2020/12/19 12:07:01;;;;;;;2.97;2.65;;;8.40;78.30;;;;;;5069081;28;20036;-65
2020/12/19 12:09:27;;;;;;;6.00;3.35;;;8.50;77.90;;;;;;5053043;28;20055;-66
2020/12/19 12:11:52;;;;;;;4.07;3.33;;;8.80;77.70;;;;;;5060274;28;20028;-66
2020/12/19 12:14:18;;;;;;;3.95;3.25;;;9.00;77.20;;;;;;5061388;28;20435;-65
2020/12/19 12:16:44;;;;;;;8.15;3.67;;;9.10;76.90;;;;;;5055631;28;20048;-64
2020/12/19 12:19:09;;;;;;;5.35;3.63;;;9.30;76.70;;;;;;5064719;28;20040;-66
2020/12/19 12:21:39;;;;;;;3.35;2.97;;;9.50;76.40;;;;;;5078711;28;20484;-66
2020/12/19 12:24:06;;;;;;;3.22;2.90;;;9.70;76.30;;;;;;5053829;28;20568;-66
2020/12/19 12:26:33;;;;;;;3.80;3.38;;;9.80;76.00;;;;;;5054926;28;20032;-65
2020/12/19 12:29:02;;;;;;;3.17;2.88;;;10.00;75.80;;;;;;5065267;28;20524;-66
2020/12/19 12:31:31;;;;;;;3.92;3.35;;;10.10;75.40;;;;;;5051392;28;20078;-66
2020/12/19 12:33:57;;;;;;;5.53;3.22;;;10.20;75.30;;;;;;5066510;28;20040;-68
2020/12/19 12:36:24;;;;;;;4.18;3.03;;;10.40;75.30;;;;;;5052715;28;20021;-66
2020/12/19 12:38:50;;;;;;;3.42;3.13;;;10.50;74.80;;;;;;5057844;28;20025;-66
2020/12/19 12:41:17;;;;;;;4.00;3.20;;;10.60;74.60;;;;;;5054408;28;20052;-68
2020/12/19 12:43:43;;;;;;;4.35;3.53;;;10.70;74.30;;;;;;5064112;28;20045;-66
2020/12/19 12:46:09;;;;;;;4.20;3.80;;;10.80;74.30;;;;;;5060910;28;20032;-66
2020/12/19 12:48:35;;;;;;;5.25;3.08;;;10.90;74.00;;;;;;5056637;28;20024;-66
2020/12/19 12:51:01;;;;;;;5.18;3.55;;;11.00;73.90;;;;;;5063797;28;20039;-66
2020/12/19 12:53:26;;;;;;;3.53;3.17;;;11.10;73.50;;;;;;5053343;28;20045;-66
2020/12/19 12:55:52;;;;;;;3.33;2.90;;;11.10;73.30;;;;;;5072911;28;20048;-66
2020/12/19 12:58:17;;;;;;;8.68;3.63;;;11.20;73.10;;;;;;5072255;28;20021;-66